sensor_id;sensor_type;location;lat;lon;timestamp;P1;durP1;ratioP1;P2;durP2;ratioP2
44214;SDS011;29884;47.450;19.124;2022-07-30T00:01:15;1.23;;;0.90;;
44214;SDS011;29884;47.450;19.124;2022-07-30T00:03:41;1.20;;;0.73;;
44214;SDS011;29884;47.450;19.124;2022-07-30T00:06:07;1.33;;;0.88;;
44214;SDS011;29884;47.450;19.124;2022-07-30T00:08:33;1.75;;;0.90;;
44214;SDS011;29884;47.450;19.124;2022-07-30T00:10:58;1.77;;;0.80;;
44214;SDS011;29884;47.450;19.124;2022-07-30T00:13:24;0.93;;;0.77;;
44214;SDS011;29884;47.450;19.124;2022-07-30T00:15:50;1.77;;;0.73;;
44214;SDS011;29884;47.450;19.124;2022-07-30T00:18:15;1.83;;;0.80;;
44214;SDS011;29884;47.450;19.124;2022-07-30T00:20:42;1.90;;;0.88;;
44214;SDS011;29884;47.450;19.124;2022-07-30T00:23:08;1.08;;;0.70;;
44214;SDS011;29884;47.450;19.124;2022-07-30T00:25:34;3.30;;;0.73;;
44214;SDS011;29884;47.450;19.124;2022-07-30T00:28:00;2.75;;;0.80;;
44214;SDS011;29884;47.450;19.124;2022-07-30T00:30:25;1.40;;;0.70;;
44214;SDS011;29884;47.450;19.124;2022-07-30T00:32:51;5.13;;;0.73;;
44214;SDS011;29884;47.450;19.124;2022-07-30T00:35:17;3.83;;;0.90;;
44214;SDS011;29884;47.450;19.124;2022-07-30T00:37:42;1.85;;;0.80;;
44214;SDS011;29884;47.450;19.124;2022-07-30T00:40:08;1.70;;;0.70;;
44214;SDS011;29884;47.450;19.124;2022-07-30T00:45:11;1.10;;;0.70;;
44214;SDS011;29884;47.450;19.124;2022-07-30T00:47:37;1.20;;;0.73;;
44214;SDS011;29884;47.450;19.124;2022-07-30T00:50:05;5.50;;;0.70;;
44214;SDS011;29884;47.450;19.124;2022-07-30T00:52:32;1.25;;;0.80;;
44214;SDS011;29884;47.450;19.124;2022-07-30T00:54:59;1.10;;;0.80;;
44214;SDS011;29884;47.450;19.124;2022-07-30T00:57:25;1.23;;;0.80;;
44214;SDS011;29884;47.450;19.124;2022-07-30T00:59:52;2.28;;;0.80;;
44214;SDS011;29884;47.450;19.124;2022-07-30T01:02:18;1.85;;;0.70;;
44214;SDS011;29884;47.450;19.124;2022-07-30T01:04:44;1.27;;;0.80;;
44214;SDS011;29884;47.450;19.124;2022-07-30T01:07:10;1.65;;;0.95;;
44214;SDS011;29884;47.450;19.124;2022-07-30T01:09:36;1.50;;;0.80;;
44214;SDS011;29884;47.450;19.124;2022-07-30T01:12:02;2.75;;;0.80;;
44214;SDS011;29884;47.450;19.124;2022-07-30T01:14:30;1.23;;;0.80;;
44214;SDS011;29884;47.450;19.124;2022-07-30T01:16:58;2.60;;;0.90;;
44214;SDS011;29884;47.450;19.124;2022-07-30T01:19:25;1.33;;;0.95;;
44214;SDS011;29884;47.450;19.124;2022-07-30T01:27:53;1.83;;;0.75;;
44214;SDS011;29884;47.450;19.124;2022-07-30T01:30:25;1.73;;;0.85;;
44214;SDS011;29884;47.450;19.124;2022-07-30T01:32:53;1.90;;;0.70;;
44214;SDS011;29884;47.450;19.124;2022-07-30T01:35:20;2.00;;;1.08;;
44214;SDS011;29884;47.450;19.124;2022-07-30T01:37:48;2.65;;;0.75;;
44214;SDS011;29884;47.450;19.124;2022-07-30T01:40:17;1.33;;;0.80;;
44214;SDS011;29884;47.450;19.124;2022-07-30T01:42:44;2.90;;;0.80;;
44214;SDS011;29884;47.450;19.124;2022-07-30T01:45:12;2.25;;;0.93;;
44214;SDS011;29884;47.450;19.124;2022-07-30T01:47:40;3.58;;;0.90;;
44214;SDS011;29884;47.450;19.124;2022-07-30T01:50:08;2.08;;;0.90;;
44214;SDS011;29884;47.450;19.124;2022-07-30T01:52:38;1.40;;;0.90;;
44214;SDS011;29884;47.450;19.124;2022-07-30T01:55:07;2.70;;;0.70;;
44214;SDS011;29884;47.450;19.124;2022-07-30T01:57:36;2.70;;;1.00;;
44214;SDS011;29884;47.450;19.124;2022-07-30T02:00:04;1.40;;;0.80;;
44214;SDS011;29884;47.450;19.124;2022-07-30T02:02:33;1.95;;;1.00;;
44214;SDS011;29884;47.450;19.124;2022-07-30T02:05:00;2.28;;;0.73;;
44214;SDS011;29884;47.450;19.124;2022-07-30T02:07:36;1.83;;;0.90;;
44214;SDS011;29884;47.450;19.124;2022-07-30T02:10:10;1.15;;;0.73;;
44214;SDS011;29884;47.450;19.124;2022-07-30T02:12:41;2.17;;;0.95;;
44214;SDS011;29884;47.450;19.124;2022-07-30T02:15:24;2.42;;;0.80;;
44214;SDS011;29884;47.450;19.124;2022-07-30T02:18:05;1.92;;;1.08;;
44214;SDS011;29884;47.450;19.124;2022-07-30T02:20:37;1.52;;;0.80;;
44214;SDS011;29884;47.450;19.124;2022-07-30T02:23:09;1.83;;;0.80;;
44214;SDS011;29884;47.450;19.124;2022-07-30T02:25:37;1.42;;;0.82;;
44214;SDS011;29884;47.450;19.124;2022-07-30T02:28:08;3.97;;;1.00;;
44214;SDS011;29884;47.450;19.124;2022-07-30T02:30:38;1.58;;;0.90;;
44214;SDS011;29884;47.450;19.124;2022-07-30T02:33:10;1.70;;;0.90;;
44214;SDS011;29884;47.450;19.124;2022-07-30T02:35:38;1.77;;;0.98;;
44214;SDS011;29884;47.450;19.124;2022-07-30T02:38:05;1.33;;;0.80;;
44214;SDS011;29884;47.450;19.124;2022-07-30T02:40:32;1.60;;;1.00;;
44214;SDS011;29884;47.450;19.124;2022-07-30T02:42:58;2.00;;;0.80;;
44214;SDS011;29884;47.450;19.124;2022-07-30T02:45:24;1.58;;;0.82;;
44214;SDS011;29884;47.450;19.124;2022-07-30T02:47:53;2.25;;;0.80;;
44214;SDS011;29884;47.450;19.124;2022-07-30T02:50:21;1.50;;;0.80;;
44214;SDS011;29884;47.450;19.124;2022-07-30T02:52:49;2.08;;;0.90;;
44214;SDS011;29884;47.450;19.124;2022-07-30T02:55:17;1.63;;;1.13;;
44214;SDS011;29884;47.450;19.124;2022-07-30T02:57:43;1.55;;;0.80;;
44214;SDS011;29884;47.450;19.124;2022-07-30T03:00:10;1.25;;;0.90;;
44214;SDS011;29884;47.450;19.124;2022-07-30T03:02:37;2.55;;;0.80;;
44214;SDS011;29884;47.450;19.124;2022-07-30T03:05:03;1.20;;;0.80;;
44214;SDS011;29884;47.450;19.124;2022-07-30T03:07:31;2.85;;;0.90;;
44214;SDS011;29884;47.450;19.124;2022-07-30T03:09:59;1.27;;;0.73;;
44214;SDS011;29884;47.450;19.124;2022-07-30T03:12:28;1.20;;;0.82;;
44214;SDS011;29884;47.450;19.124;2022-07-30T03:14:55;1.75;;;0.90;;
44214;SDS011;29884;47.450;19.124;2022-07-30T03:17:22;1.20;;;0.80;;
44214;SDS011;29884;47.450;19.124;2022-07-30T03:19:50;1.92;;;0.95;;
44214;SDS011;29884;47.450;19.124;2022-07-30T03:22:19;1.50;;;0.80;;
44214;SDS011;29884;47.450;19.124;2022-07-30T03:24:47;1.30;;;0.90;;
44214;SDS011;29884;47.450;19.124;2022-07-30T03:27:15;3.03;;;0.65;;
44214;SDS011;29884;47.450;19.124;2022-07-30T03:29:41;1.42;;;0.73;;
44214;SDS011;29884;47.450;19.124;2022-07-30T03:32:09;2.03;;;0.90;;
44214;SDS011;29884;47.450;19.124;2022-07-30T03:34:36;1.60;;;0.77;;
44214;SDS011;29884;47.450;19.124;2022-07-30T03:37:02;1.25;;;0.80;;
44214;SDS011;29884;47.450;19.124;2022-07-30T03:39:31;1.98;;;1.05;;
44214;SDS011;29884;47.450;19.124;2022-07-30T03:41:58;1.00;;;0.80;;
44214;SDS011;29884;47.450;19.124;2022-07-30T03:44:24;1.30;;;0.80;;
44214;SDS011;29884;47.450;19.124;2022-07-30T03:46:51;1.08;;;0.73;;
44214;SDS011;29884;47.450;19.124;2022-07-30T03:49:19;1.17;;;0.80;;
44214;SDS011;29884;47.450;19.124;2022-07-30T03:51:47;2.30;;;0.90;;
44214;SDS011;29884;47.450;19.124;2022-07-30T03:54:14;1.30;;;0.70;;
44214;SDS011;29884;47.450;19.124;2022-07-30T03:56:40;1.35;;;0.80;;
44214;SDS011;29884;47.450;19.124;2022-07-30T03:59:06;3.70;;;1.00;;
44214;SDS011;29884;47.450;19.124;2022-07-30T04:01:32;1.42;;;0.80;;
44214;SDS011;29884;47.450;19.124;2022-07-30T04:04:07;1.52;;;0.70;;
44214;SDS011;29884;47.450;19.124;2022-07-30T04:06:34;1.20;;;0.70;;
44214;SDS011;29884;47.450;19.124;2022-07-30T04:09:07;1.65;;;0.75;;
44214;SDS011;29884;47.450;19.124;2022-07-30T04:11:36;1.02;;;0.70;;
44214;SDS011;29884;47.450;19.124;2022-07-30T04:14:03;0.95;;;0.70;;
44214;SDS011;29884;47.450;19.124;2022-07-30T04:19:24;1.02;;;0.70;;
44214;SDS011;29884;47.450;19.124;2022-07-30T04:21:53;1.25;;;0.70;;
44214;SDS011;29884;47.450;19.124;2022-07-30T04:24:21;1.20;;;0.70;;
44214;SDS011;29884;47.450;19.124;2022-07-30T04:26:48;1.08;;;0.70;;
44214;SDS011;29884;47.450;19.124;2022-07-30T04:29:15;6.05;;;0.80;;
44214;SDS011;29884;47.450;19.124;2022-07-30T04:31:42;2.25;;;0.80;;
44214;SDS011;29884;47.450;19.124;2022-07-30T04:34:09;1.25;;;0.77;;
44214;SDS011;29884;47.450;19.124;2022-07-30T04:36:40;2.72;;;0.70;;
44214;SDS011;29884;47.450;19.124;2022-07-30T04:39:06;1.30;;;0.60;;
44214;SDS011;29884;47.450;19.124;2022-07-30T04:41:32;2.88;;;0.90;;
44214;SDS011;29884;47.450;19.124;2022-07-30T04:43:58;4.05;;;0.73;;
44214;SDS011;29884;47.450;19.124;2022-07-30T04:46:24;0.90;;;0.60;;
44214;SDS011;29884;47.450;19.124;2022-07-30T04:48:50;1.55;;;0.70;;
44214;SDS011;29884;47.450;19.124;2022-07-30T04:51:17;1.25;;;0.68;;
44214;SDS011;29884;47.450;19.124;2022-07-30T04:53:48;0.95;;;0.65;;
44214;SDS011;29884;47.450;19.124;2022-07-30T04:56:17;1.48;;;0.75;;
44214;SDS011;29884;47.450;19.124;2022-07-30T04:58:44;2.92;;;0.65;;
44214;SDS011;29884;47.450;19.124;2022-07-30T05:01:11;1.92;;;0.70;;
44214;SDS011;29884;47.450;19.124;2022-07-30T05:03:42;1.58;;;0.68;;
44214;SDS011;29884;47.450;19.124;2022-07-30T05:06:09;1.30;;;0.75;;
44214;SDS011;29884;47.450;19.124;2022-07-30T05:08:36;1.30;;;0.80;;
44214;SDS011;29884;47.450;19.124;2022-07-30T05:11:03;1.23;;;0.60;;
44214;SDS011;29884;47.450;19.124;2022-07-30T05:13:29;1.10;;;0.70;;
44214;SDS011;29884;47.450;19.124;2022-07-30T05:15:55;3.40;;;0.63;;
44214;SDS011;29884;47.450;19.124;2022-07-30T05:18:20;1.17;;;0.80;;
44214;SDS011;29884;47.450;19.124;2022-07-30T05:20:46;1.27;;;0.80;;
44214;SDS011;29884;47.450;19.124;2022-07-30T05:23:12;1.30;;;0.70;;
44214;SDS011;29884;47.450;19.124;2022-07-30T05:25:38;1.92;;;0.65;;
44214;SDS011;29884;47.450;19.124;2022-07-30T05:28:03;2.80;;;0.90;;
44214;SDS011;29884;47.450;19.124;2022-07-30T05:30:29;1.80;;;0.70;;
44214;SDS011;29884;47.450;19.124;2022-07-30T05:32:55;2.13;;;0.80;;
44214;SDS011;29884;47.450;19.124;2022-07-30T05:35:21;1.10;;;0.77;;
44214;SDS011;29884;47.450;19.124;2022-07-30T05:37:46;0.82;;;0.60;;
44214;SDS011;29884;47.450;19.124;2022-07-30T05:40:12;1.15;;;0.70;;
44214;SDS011;29884;47.450;19.124;2022-07-30T05:42:38;0.90;;;0.60;;
44214;SDS011;29884;47.450;19.124;2022-07-30T05:45:06;2.30;;;0.73;;
44214;SDS011;29884;47.450;19.124;2022-07-30T05:47:32;1.70;;;0.93;;
44214;SDS011;29884;47.450;19.124;2022-07-30T05:49:58;2.63;;;0.80;;
44214;SDS011;29884;47.450;19.124;2022-07-30T05:52:24;1.35;;;0.73;;
44214;SDS011;29884;47.450;19.124;2022-07-30T05:54:49;1.27;;;0.68;;
44214;SDS011;29884;47.450;19.124;2022-07-30T05:57:15;2.22;;;0.70;;
44214;SDS011;29884;47.450;19.124;2022-07-30T05:59:41;3.67;;;0.70;;
44214;SDS011;29884;47.450;19.124;2022-07-30T06:02:06;0.90;;;0.70;;
44214;SDS011;29884;47.450;19.124;2022-07-30T06:04:32;1.05;;;0.60;;
44214;SDS011;29884;47.450;19.124;2022-07-30T06:06:59;0.93;;;0.60;;
44214;SDS011;29884;47.450;19.124;2022-07-30T06:09:25;3.03;;;0.70;;
44214;SDS011;29884;47.450;19.124;2022-07-30T06:11:50;1.85;;;0.93;;
44214;SDS011;29884;47.450;19.124;2022-07-30T06:14:16;2.30;;;0.70;;
44214;SDS011;29884;47.450;19.124;2022-07-30T06:16:42;1.48;;;0.70;;
44214;SDS011;29884;47.450;19.124;2022-07-30T06:19:07;2.83;;;0.65;;
44214;SDS011;29884;47.450;19.124;2022-07-30T06:21:33;1.45;;;0.70;;
44214;SDS011;29884;47.450;19.124;2022-07-30T06:23:59;1.02;;;0.75;;
44214;SDS011;29884;47.450;19.124;2022-07-30T06:26:25;1.77;;;0.90;;
44214;SDS011;29884;47.450;19.124;2022-07-30T06:28:50;0.98;;;0.60;;
44214;SDS011;29884;47.450;19.124;2022-07-30T06:31:16;1.67;;;0.70;;
44214;SDS011;29884;47.450;19.124;2022-07-30T06:33:42;1.88;;;0.80;;
44214;SDS011;29884;47.450;19.124;2022-07-30T06:36:07;2.22;;;0.93;;
44214;SDS011;29884;47.450;19.124;2022-07-30T06:38:33;1.40;;;0.68;;
44214;SDS011;29884;47.450;19.124;2022-07-30T06:40:59;1.80;;;0.90;;
44214;SDS011;29884;47.450;19.124;2022-07-30T06:43:24;3.35;;;0.82;;
44214;SDS011;29884;47.450;19.124;2022-07-30T06:45:54;2.63;;;0.80;;
44214;SDS011;29884;47.450;19.124;2022-07-30T06:48:20;1.30;;;0.70;;
44214;SDS011;29884;47.450;19.124;2022-07-30T06:50:46;1.92;;;0.70;;
44214;SDS011;29884;47.450;19.124;2022-07-30T06:53:12;1.20;;;0.70;;
44214;SDS011;29884;47.450;19.124;2022-07-30T06:55:37;1.30;;;0.77;;
44214;SDS011;29884;47.450;19.124;2022-07-30T06:58:03;3.17;;;0.90;;
44214;SDS011;29884;47.450;19.124;2022-07-30T07:00:29;3.03;;;0.90;;
44214;SDS011;29884;47.450;19.124;2022-07-30T07:02:54;2.47;;;0.90;;
44214;SDS011;29884;47.450;19.124;2022-07-30T07:05:20;4.30;;;0.77;;
44214;SDS011;29884;47.450;19.124;2022-07-30T07:07:47;3.35;;;1.20;;
44214;SDS011;29884;47.450;19.124;2022-07-30T07:10:13;1.25;;;0.90;;
44214;SDS011;29884;47.450;19.124;2022-07-30T07:12:39;5.95;;;0.90;;
44214;SDS011;29884;47.450;19.124;2022-07-30T07:15:04;3.50;;;0.90;;
44214;SDS011;29884;47.450;19.124;2022-07-30T07:17:31;1.52;;;1.00;;
44214;SDS011;29884;47.450;19.124;2022-07-30T07:19:56;2.00;;;0.90;;
44214;SDS011;29884;47.450;19.124;2022-07-30T07:22:22;1.33;;;0.80;;
44214;SDS011;29884;47.450;19.124;2022-07-30T07:24:48;1.40;;;0.90;;
44214;SDS011;29884;47.450;19.124;2022-07-30T07:27:13;3.85;;;0.90;;
44214;SDS011;29884;47.450;19.124;2022-07-30T07:29:39;1.63;;;1.00;;
44214;SDS011;29884;47.450;19.124;2022-07-30T07:32:05;3.33;;;1.08;;
44214;SDS011;29884;47.450;19.124;2022-07-30T07:34:31;2.88;;;0.90;;
44214;SDS011;29884;47.450;19.124;2022-07-30T07:36:57;4.22;;;1.40;;
44214;SDS011;29884;47.450;19.124;2022-07-30T07:39:23;3.00;;;0.88;;
44214;SDS011;29884;47.450;19.124;2022-07-30T07:41:49;3.67;;;1.10;;
44214;SDS011;29884;47.450;19.124;2022-07-30T07:44:14;3.35;;;1.00;;
44214;SDS011;29884;47.450;19.124;2022-07-30T07:46:40;5.53;;;1.30;;
44214;SDS011;29884;47.450;19.124;2022-07-30T07:49:06;2.60;;;1.00;;
44214;SDS011;29884;47.450;19.124;2022-07-30T07:51:31;2.53;;;0.95;;
44214;SDS011;29884;47.450;19.124;2022-07-30T07:53:57;4.13;;;1.00;;
44214;SDS011;29884;47.450;19.124;2022-07-30T07:56:23;4.95;;;1.13;;
44214;SDS011;29884;47.450;19.124;2022-07-30T07:58:49;2.15;;;1.20;;
44214;SDS011;29884;47.450;19.124;2022-07-30T08:01:18;1.45;;;0.80;;
44214;SDS011;29884;47.450;19.124;2022-07-30T08:03:45;1.95;;;0.80;;
44214;SDS011;29884;47.450;19.124;2022-07-30T08:06:10;1.08;;;0.70;;
44214;SDS011;29884;47.450;19.124;2022-07-30T08:08:36;2.38;;;1.00;;
44214;SDS011;29884;47.450;19.124;2022-07-30T08:11:02;1.52;;;0.70;;
44214;SDS011;29884;47.450;19.124;2022-07-30T08:13:29;1.30;;;0.70;;
44214;SDS011;29884;47.450;19.124;2022-07-30T08:15:54;1.58;;;0.70;;
44214;SDS011;29884;47.450;19.124;2022-07-30T08:18:20;2.75;;;0.80;;
44214;SDS011;29884;47.450;19.124;2022-07-30T08:20:46;0.88;;;0.60;;
44214;SDS011;29884;47.450;19.124;2022-07-30T08:23:11;1.17;;;0.57;;
44214;SDS011;29884;47.450;19.124;2022-07-30T08:25:37;1.20;;;0.65;;
44214;SDS011;29884;47.450;19.124;2022-07-30T08:28:03;1.08;;;0.70;;
44214;SDS011;29884;47.450;19.124;2022-07-30T08:30:29;1.17;;;0.57;;
44214;SDS011;29884;47.450;19.124;2022-07-30T08:32:55;0.95;;;0.60;;
44214;SDS011;29884;47.450;19.124;2022-07-30T08:35:21;0.90;;;0.65;;
44214;SDS011;29884;47.450;19.124;2022-07-30T08:37:47;1.30;;;0.77;;
44214;SDS011;29884;47.450;19.124;2022-07-30T08:40:12;1.23;;;0.80;;
44214;SDS011;29884;47.450;19.124;2022-07-30T08:42:38;1.23;;;0.60;;
44214;SDS011;29884;47.450;19.124;2022-07-30T08:45:04;2.35;;;0.60;;
44214;SDS011;29884;47.450;19.124;2022-07-30T08:47:31;1.48;;;0.63;;
44214;SDS011;29884;47.450;19.124;2022-07-30T08:49:58;1.30;;;0.73;;
44214;SDS011;29884;47.450;19.124;2022-07-30T08:52:31;0.85;;;0.70;;
44214;SDS011;29884;47.450;19.124;2022-07-30T08:54:58;1.33;;;0.70;;
44214;SDS011;29884;47.450;19.124;2022-07-30T08:57:25;1.25;;;0.73;;
44214;SDS011;29884;47.450;19.124;2022-07-30T08:59:54;2.50;;;0.80;;
44214;SDS011;29884;47.450;19.124;2022-07-30T09:02:24;1.45;;;0.80;;
44214;SDS011;29884;47.450;19.124;2022-07-30T09:04:51;1.00;;;0.73;;
44214;SDS011;29884;47.450;19.124;2022-07-30T09:07:17;1.48;;;0.80;;
44214;SDS011;29884;47.450;19.124;2022-07-30T09:09:42;1.10;;;0.80;;
44214;SDS011;29884;47.450;19.124;2022-07-30T09:15:03;1.60;;;0.82;;
44214;SDS011;29884;47.450;19.124;2022-07-30T09:20:19;1.30;;;0.80;;
44214;SDS011;29884;47.450;19.124;2022-07-30T09:22:47;2.20;;;0.77;;
44214;SDS011;29884;47.450;19.124;2022-07-30T09:25:14;1.20;;;0.80;;
44214;SDS011;29884;47.450;19.124;2022-07-30T09:27:44;2.40;;;0.98;;
44214;SDS011;29884;47.450;19.124;2022-07-30T09:30:12;1.55;;;0.75;;
44214;SDS011;29884;47.450;19.124;2022-07-30T09:35:14;1.50;;;0.90;;
44214;SDS011;29884;47.450;19.124;2022-07-30T09:37:40;3.33;;;0.93;;
44214;SDS011;29884;47.450;19.124;2022-07-30T09:40:12;1.27;;;0.90;;
44214;SDS011;29884;47.450;19.124;2022-07-30T09:42:40;1.60;;;1.00;;
44214;SDS011;29884;47.450;19.124;2022-07-30T09:45:07;2.42;;;0.80;;
44214;SDS011;29884;47.450;19.124;2022-07-30T09:47:40;1.42;;;0.90;;
44214;SDS011;29884;47.450;19.124;2022-07-30T09:50:12;2.35;;;1.40;;
44214;SDS011;29884;47.450;19.124;2022-07-30T09:52:40;4.40;;;2.08;;
44214;SDS011;29884;47.450;19.124;2022-07-30T09:55:08;5.28;;;2.50;;
44214;SDS011;29884;47.450;19.124;2022-07-30T09:57:35;4.57;;;1.95;;
44214;SDS011;29884;47.450;19.124;2022-07-30T10:00:18;3.67;;;1.67;;
44214;SDS011;29884;47.450;19.124;2022-07-30T10:02:46;3.72;;;1.63;;
44214;SDS011;29884;47.450;19.124;2022-07-30T10:05:13;6.55;;;1.67;;
44214;SDS011;29884;47.450;19.124;2022-07-30T10:07:50;3.10;;;1.65;;
44214;SDS011;29884;47.450;19.124;2022-07-30T10:10:25;4.45;;;2.08;;
44214;SDS011;29884;47.450;19.124;2022-07-30T10:12:55;4.03;;;1.95;;
44214;SDS011;29884;47.450;19.124;2022-07-30T10:15:23;3.92;;;2.03;;
44214;SDS011;29884;47.450;19.124;2022-07-30T10:17:52;5.28;;;2.50;;
44214;SDS011;29884;47.450;19.124;2022-07-30T10:20:18;3.95;;;1.80;;
44214;SDS011;29884;47.450;19.124;2022-07-30T10:22:44;2.97;;;1.83;;
44214;SDS011;29884;47.450;19.124;2022-07-30T10:25:11;3.13;;;1.80;;
44214;SDS011;29884;47.450;19.124;2022-07-30T10:27:37;2.80;;;1.92;;
44214;SDS011;29884;47.450;19.124;2022-07-30T10:30:04;4.05;;;1.95;;
44214;SDS011;29884;47.450;19.124;2022-07-30T10:32:30;2.78;;;1.85;;
44214;SDS011;29884;47.450;19.124;2022-07-30T10:34:56;4.50;;;2.05;;
44214;SDS011;29884;47.450;19.124;2022-07-30T10:37:23;4.88;;;2.50;;
44214;SDS011;29884;47.450;19.124;2022-07-30T10:39:52;4.13;;;2.25;;
44214;SDS011;29884;47.450;19.124;2022-07-30T10:44:54;7.10;;;2.60;;
44214;SDS011;29884;47.450;19.124;2022-07-30T10:47:23;5.13;;;2.17;;
44214;SDS011;29884;47.450;19.124;2022-07-30T10:52:47;6.22;;;2.15;;
44214;SDS011;29884;47.450;19.124;2022-07-30T10:55:18;4.85;;;2.38;;
44214;SDS011;29884;47.450;19.124;2022-07-30T10:58:04;6.00;;;2.35;;
44214;SDS011;29884;47.450;19.124;2022-07-30T11:03:12;5.43;;;3.30;;
44214;SDS011;29884;47.450;19.124;2022-07-30T11:05:47;4.47;;;3.00;;
44214;SDS011;29884;47.450;19.124;2022-07-30T11:13:49;4.95;;;2.50;;
44214;SDS011;29884;47.450;19.124;2022-07-30T11:16:22;5.03;;;2.63;;
44214;SDS011;29884;47.450;19.124;2022-07-30T11:19:13;5.47;;;3.17;;
44214;SDS011;29884;47.450;19.124;2022-07-30T11:21:50;4.15;;;2.58;;
44214;SDS011;29884;47.450;19.124;2022-07-30T11:24:48;4.82;;;2.92;;
44214;SDS011;29884;47.450;19.124;2022-07-30T11:27:33;4.82;;;3.13;;
44214;SDS011;29884;47.450;19.124;2022-07-30T11:32:51;5.47;;;3.88;;
44214;SDS011;29884;47.450;19.124;2022-07-30T11:35:40;4.57;;;3.33;;
44214;SDS011;29884;47.450;19.124;2022-07-30T11:38:11;3.63;;;2.45;;
44214;SDS011;29884;47.450;19.124;2022-07-30T11:46:09;5.28;;;3.30;;
44214;SDS011;29884;47.450;19.124;2022-07-30T11:48:40;4.28;;;2.95;;
44214;SDS011;29884;47.450;19.124;2022-07-30T11:51:08;5.07;;;3.33;;
44214;SDS011;29884;47.450;19.124;2022-07-30T11:53:34;5.07;;;3.15;;
44214;SDS011;29884;47.450;19.124;2022-07-30T11:56:01;5.65;;;3.38;;
44214;SDS011;29884;47.450;19.124;2022-07-30T11:58:28;5.03;;;3.47;;
44214;SDS011;29884;47.450;19.124;2022-07-30T12:00:59;4.38;;;3.40;;
44214;SDS011;29884;47.450;19.124;2022-07-30T12:03:27;3.90;;;2.92;;
44214;SDS011;29884;47.450;19.124;2022-07-30T12:05:56;3.35;;;2.55;;
44214;SDS011;29884;47.450;19.124;2022-07-30T12:08:28;3.85;;;2.90;;
44214;SDS011;29884;47.450;19.124;2022-07-30T12:10:55;3.97;;;2.40;;
44214;SDS011;29884;47.450;19.124;2022-07-30T12:13:23;2.75;;;1.77;;
44214;SDS011;29884;47.450;19.124;2022-07-30T12:15:48;3.33;;;2.00;;
44214;SDS011;29884;47.450;19.124;2022-07-30T12:18:27;3.60;;;1.70;;
44214;SDS011;29884;47.450;19.124;2022-07-30T12:21:01;2.25;;;1.88;;
44214;SDS011;29884;47.450;19.124;2022-07-30T12:23:39;2.58;;;1.40;;
44214;SDS011;29884;47.450;19.124;2022-07-30T12:26:07;2.15;;;1.35;;
44214;SDS011;29884;47.450;19.124;2022-07-30T12:28:43;1.80;;;1.50;;
44214;SDS011;29884;47.450;19.124;2022-07-30T12:31:11;3.10;;;1.35;;
44214;SDS011;29884;47.450;19.124;2022-07-30T12:33:40;1.95;;;1.30;;
44214;SDS011;29884;47.450;19.124;2022-07-30T12:36:06;1.70;;;1.20;;
44214;SDS011;29884;47.450;19.124;2022-07-30T12:38:43;1.73;;;1.25;;
44214;SDS011;29884;47.450;19.124;2022-07-30T12:41:12;4.78;;;1.20;;
44214;SDS011;29884;47.450;19.124;2022-07-30T12:46:37;2.38;;;1.30;;
44214;SDS011;29884;47.450;19.124;2022-07-30T12:49:07;2.05;;;1.30;;
44214;SDS011;29884;47.450;19.124;2022-07-30T12:51:35;1.60;;;1.10;;
44214;SDS011;29884;47.450;19.124;2022-07-30T12:54:14;2.05;;;1.20;;
44214;SDS011;29884;47.450;19.124;2022-07-30T12:56:54;1.67;;;1.10;;
44214;SDS011;29884;47.450;19.124;2022-07-30T12:59:24;2.47;;;1.20;;
44214;SDS011;29884;47.450;19.124;2022-07-30T13:01:51;1.38;;;0.90;;
44214;SDS011;29884;47.450;19.124;2022-07-30T13:04:17;1.55;;;1.05;;
44214;SDS011;29884;47.450;19.124;2022-07-30T13:07:01;1.70;;;0.90;;
44214;SDS011;29884;47.450;19.124;2022-07-30T13:09:34;1.70;;;0.93;;
44214;SDS011;29884;47.450;19.124;2022-07-30T13:12:01;1.60;;;0.80;;
44214;SDS011;29884;47.450;19.124;2022-07-30T13:14:27;1.00;;;0.70;;
44214;SDS011;29884;47.450;19.124;2022-07-30T13:16:53;0.93;;;0.65;;
44214;SDS011;29884;47.450;19.124;2022-07-30T13:19:23;1.83;;;0.70;;
44214;SDS011;29884;47.450;19.124;2022-07-30T13:21:52;1.10;;;0.63;;
44214;SDS011;29884;47.450;19.124;2022-07-30T13:24:17;1.20;;;0.70;;
44214;SDS011;29884;47.450;19.124;2022-07-30T13:26:43;0.95;;;0.60;;
44214;SDS011;29884;47.450;19.124;2022-07-30T13:29:10;0.77;;;0.60;;
44214;SDS011;29884;47.450;19.124;2022-07-30T13:31:37;0.43;;;0.30;;
44214;SDS011;29884;47.450;19.124;2022-07-30T13:34:03;0.40;;;0.20;;
44214;SDS011;29884;47.450;19.124;2022-07-30T13:36:29;0.10;;;0.10;;
44214;SDS011;29884;47.450;19.124;2022-07-30T13:38:55;0.20;;;0.20;;
44214;SDS011;29884;47.450;19.124;2022-07-30T13:41:20;0.98;;;0.40;;
44214;SDS011;29884;47.450;19.124;2022-07-30T13:43:46;0.98;;;0.40;;
44214;SDS011;29884;47.450;19.124;2022-07-30T13:46:12;0.30;;;0.30;;
44214;SDS011;29884;47.450;19.124;2022-07-30T13:48:38;0.35;;;0.20;;
44214;SDS011;29884;47.450;19.124;2022-07-30T13:51:04;0.90;;;0.45;;
44214;SDS011;29884;47.450;19.124;2022-07-30T13:53:30;0.70;;;0.40;;
44214;SDS011;29884;47.450;19.124;2022-07-30T13:55:56;0.32;;;0.20;;
44214;SDS011;29884;47.450;19.124;2022-07-30T13:58:23;0.20;;;0.10;;
44214;SDS011;29884;47.450;19.124;2022-07-30T14:00:49;0.28;;;0.20;;
44214;SDS011;29884;47.450;19.124;2022-07-30T14:03:15;1.75;;;0.20;;
44214;SDS011;29884;47.450;19.124;2022-07-30T14:05:41;0.30;;;0.20;;
44214;SDS011;29884;47.450;19.124;2022-07-30T14:08:07;0.20;;;0.20;;
44214;SDS011;29884;47.450;19.124;2022-07-30T14:10:33;0.30;;;0.20;;
44214;SDS011;29884;47.450;19.124;2022-07-30T14:13:01;0.20;;;0.20;;
44214;SDS011;29884;47.450;19.124;2022-07-30T14:15:28;0.60;;;0.40;;
44214;SDS011;29884;47.450;19.124;2022-07-30T14:17:58;1.00;;;0.50;;
44214;SDS011;29884;47.450;19.124;2022-07-30T14:20:24;1.98;;;0.30;;
44214;SDS011;29884;47.450;19.124;2022-07-30T14:22:51;0.50;;;0.20;;
44214;SDS011;29884;47.450;19.124;2022-07-30T14:25:17;0.50;;;0.38;;
44214;SDS011;29884;47.450;19.124;2022-07-30T14:27:43;0.80;;;0.20;;
44214;SDS011;29884;47.450;19.124;2022-07-30T14:30:09;0.20;;;0.10;;
44214;SDS011;29884;47.450;19.124;2022-07-30T14:32:36;0.10;;;0.10;;
44214;SDS011;29884;47.450;19.124;2022-07-30T14:35:03;0.30;;;0.20;;
44214;SDS011;29884;47.450;19.124;2022-07-30T14:37:29;0.65;;;0.30;;
44214;SDS011;29884;47.450;19.124;2022-07-30T14:39:55;0.40;;;0.20;;
44214;SDS011;29884;47.450;19.124;2022-07-30T14:42:21;0.40;;;0.20;;
44214;SDS011;29884;47.450;19.124;2022-07-30T14:44:49;0.75;;;0.40;;
44214;SDS011;29884;47.450;19.124;2022-07-30T14:47:15;0.93;;;0.25;;
44214;SDS011;29884;47.450;19.124;2022-07-30T14:49:41;0.77;;;0.40;;
44214;SDS011;29884;47.450;19.124;2022-07-30T14:52:07;0.52;;;0.30;;
44214;SDS011;29884;47.450;19.124;2022-07-30T14:54:33;0.47;;;0.20;;
44214;SDS011;29884;47.450;19.124;2022-07-30T14:56:59;0.20;;;0.10;;
44214;SDS011;29884;47.450;19.124;2022-07-30T14:59:25;0.77;;;0.10;;
44214;SDS011;29884;47.450;19.124;2022-07-30T15:01:52;0.10;;;0.10;;
44214;SDS011;29884;47.450;19.124;2022-07-30T15:04:19;0.20;;;0.13;;
44214;SDS011;29884;47.450;19.124;2022-07-30T15:06:45;0.10;;;0.10;;
44214;SDS011;29884;47.450;19.124;2022-07-30T15:09:11;0.10;;;0.10;;
44214;SDS011;29884;47.450;19.124;2022-07-30T15:11:37;0.15;;;0.10;;
44214;SDS011;29884;47.450;19.124;2022-07-30T15:14:04;0.20;;;0.10;;
44214;SDS011;29884;47.450;19.124;2022-07-30T15:16:30;1.15;;;0.10;;
44214;SDS011;29884;47.450;19.124;2022-07-30T15:18:56;0.32;;;0.20;;
44214;SDS011;29884;47.450;19.124;2022-07-30T15:21:22;0.40;;;0.20;;